sensor_id;sensor_type;location;lat;lon;timestamp;pressure;altitude;pressure_sealevel;temperature;humidity
69171;BME280;56279;47.902;12.308;2024-03-29T00:00:59;94237.25;;;3.94;84.93
69171;BME280;56279;47.902;12.308;2024-03-29T00:03:04;94229.94;;;3.96;85.19
69171;BME280;56279;47.902;12.308;2024-03-29T00:05:05;94249.25;;;4.00;85.34
69171;BME280;56279;47.902;12.308;2024-03-29T00:07:08;94243.50;;;4.03;85.23
69171;BME280;56279;47.902;12.308;2024-03-29T00:09:10;94239.03;;;4.09;85.12
69171;BME280;56279;47.902;12.308;2024-03-29T00:11:12;94222.06;;;4.11;85.11
69171;BME280;56279;47.902;12.308;2024-03-29T00:13:13;94221.03;;;4.12;85.13
69171;BME280;56279;47.902;12.308;2024-03-29T00:15:14;94225.72;;;4.15;84.93
69171;BME280;56279;47.902;12.308;2024-03-29T00:17:17;94218.94;;;4.19;84.95
69171;BME280;56279;47.902;12.308;2024-03-29T00:19:19;94216.31;;;4.25;84.72
69171;BME280;56279;47.902;12.308;2024-03-29T00:21:20;94215.53;;;4.29;84.33
69171;BME280;56279;47.902;12.308;2024-03-29T00:23:21;94215.78;;;4.28;84.50
69171;BME280;56279;47.902;12.308;2024-03-29T00:25:23;94216.28;;;4.30;84.53
69171;BME280;56279;47.902;12.308;2024-03-29T00:27:24;94209.53;;;4.29;84.51
69171;BME280;56279;47.902;12.308;2024-03-29T00:29:27;94212.91;;;4.29;84.51
69171;BME280;56279;47.902;12.308;2024-03-29T00:31:29;94209.00;;;4.27;84.37
69171;BME280;56279;47.902;12.308;2024-03-29T00:33:31;94200.66;;;4.25;84.57
69171;BME280;56279;47.902;12.308;2024-03-29T00:35:32;94216.84;;;4.22;84.77
69171;BME280;56279;47.902;12.308;2024-03-29T00:37:34;94204.59;;;4.17;84.49
69171;BME280;56279;47.902;12.308;2024-03-29T00:39:36;94202.75;;;4.12;84.71
69171;BME280;56279;47.902;12.308;2024-03-29T00:41:37;94205.38;;;4.07;84.89
69171;BME280;56279;47.902;12.308;2024-03-29T00:43:40;94208.25;;;4.06;84.93
69171;BME280;56279;47.902;12.308;2024-03-29T00:45:41;94201.75;;;4.03;84.66
69171;BME280;56279;47.902;12.308;2024-03-29T00:47:42;94198.84;;;4.00;84.65
69171;BME280;56279;47.902;12.308;2024-03-29T00:49:43;94197.31;;;3.94;84.63
69171;BME280;56279;47.902;12.308;2024-03-29T00:51:45;94193.41;;;3.91;84.70
69171;BME280;56279;47.902;12.308;2024-03-29T00:53:46;94188.97;;;3.87;85.07
69171;BME280;56279;47.902;12.308;2024-03-29T00:55:47;94194.47;;;3.80;85.20
69171;BME280;56279;47.902;12.308;2024-03-29T00:57:48;94195.75;;;3.78;85.42
69171;BME280;56279;47.902;12.308;2024-03-29T00:59:49;94195.50;;;3.74;85.32
69171;BME280;56279;47.902;12.308;2024-03-29T01:01:51;94182.72;;;3.73;85.24
69171;BME280;56279;47.902;12.308;2024-03-29T01:03:52;94178.81;;;3.70;85.42
69171;BME280;56279;47.902;12.308;2024-03-29T01:05:54;94177.22;;;3.69;85.20
69171;BME280;56279;47.902;12.308;2024-03-29T01:07:55;94181.94;;;3.67;85.54
69171;BME280;56279;47.902;12.308;2024-03-29T01:09:56;94186.63;;;3.65;85.48
69171;BME280;56279;47.902;12.308;2024-03-29T01:11:58;94189.75;;;3.62;85.42
69171;BME280;56279;47.902;12.308;2024-03-29T01:14:00;94188.72;;;3.58;85.90
69171;BME280;56279;47.902;12.308;2024-03-29T01:16:01;94178.78;;;3.55;85.96
69171;BME280;56279;47.902;12.308;2024-03-29T01:18:04;94176.47;;;3.54;86.06
69171;BME280;56279;47.902;12.308;2024-03-29T01:20:06;94167.84;;;3.53;85.89
69171;BME280;56279;47.902;12.308;2024-03-29T01:22:09;94155.88;;;3.52;85.43
69171;BME280;56279;47.902;12.308;2024-03-29T01:24:11;94154.00;;;3.53;86.01
69171;BME280;56279;47.902;12.308;2024-03-29T01:26:12;94157.69;;;3.52;85.54
69171;BME280;56279;47.902;12.308;2024-03-29T01:28:13;94153.50;;;3.50;85.85
69171;BME280;56279;47.902;12.308;2024-03-29T01:30:14;94149.59;;;3.48;86.09
69171;BME280;56279;47.902;12.308;2024-03-29T01:32:16;94143.59;;;3.47;86.16
69171;BME280;56279;47.902;12.308;2024-03-29T01:34:17;94143.59;;;3.47;85.79
69171;BME280;56279;47.902;12.308;2024-03-29T01:36:18;94133.19;;;3.47;85.73
69171;BME280;56279;47.902;12.308;2024-03-29T01:38:20;94130.31;;;3.49;86.00
69171;BME280;56279;47.902;12.308;2024-03-29T01:40:21;94127.69;;;3.49;85.59
69171;BME280;56279;47.902;12.308;2024-03-29T01:42:22;94124.06;;;3.50;85.93
69171;BME280;56279;47.902;12.308;2024-03-29T01:44:23;94123.78;;;3.52;85.65
69171;BME280;56279;47.902;12.308;2024-03-29T01:46:26;94117.50;;;3.53;86.03
69171;BME280;56279;47.902;12.308;2024-03-29T01:48:28;94110.47;;;3.53;86.08
69171;BME280;56279;47.902;12.308;2024-03-29T01:50:31;94104.47;;;3.53;85.74
69171;BME280;56279;47.902;12.308;2024-03-29T01:52:32;94102.91;;;3.52;85.68
69171;BME280;56279;47.902;12.308;2024-03-29T01:54:34;94090.91;;;3.50;85.90
69171;BME280;56279;47.902;12.308;2024-03-29T01:56:35;94090.16;;;3.50;86.05
69171;BME280;56279;47.902;12.308;2024-03-29T01:58:38;94082.56;;;3.48;86.13
69171;BME280;56279;47.902;12.308;2024-03-29T02:00:50;94081.53;;;3.44;86.08
69171;BME280;56279;47.902;12.308;2024-03-29T02:02:52;94069.53;;;3.43;86.27
69171;BME280;56279;47.902;12.308;2024-03-29T02:04:54;94064.88;;;3.40;86.34
69171;BME280;56279;47.902;12.308;2024-03-29T02:06:56;94071.38;;;3.38;86.04
69171;BME280;56279;47.902;12.308;2024-03-29T02:08:59;94068.25;;;3.36;86.38
69171;BME280;56279;47.902;12.308;2024-03-29T02:11:00;94057.28;;;3.34;86.20
69171;BME280;56279;47.902;12.308;2024-03-29T02:13:02;94058.06;;;3.34;86.98
69171;BME280;56279;47.902;12.308;2024-03-29T02:15:05;94052.88;;;3.34;86.69
69171;BME280;56279;47.902;12.308;2024-03-29T02:17:07;94060.69;;;3.34;86.76
69171;BME280;56279;47.902;12.308;2024-03-29T02:19:08;94066.41;;;3.36;87.17
69171;BME280;56279;47.902;12.308;2024-03-29T02:21:09;94069.03;;;3.36;86.77
69171;BME280;56279;47.902;12.308;2024-03-29T02:23:25;94063.81;;;3.36;87.21
69171;BME280;56279;47.902;12.308;2024-03-29T02:25:27;94077.13;;;3.35;87.06
69171;BME280;56279;47.902;12.308;2024-03-29T02:27:29;94079.22;;;3.33;87.03
69171;BME280;56279;47.902;12.308;2024-03-29T02:29:31;94080.00;;;3.33;87.03
69171;BME280;56279;47.902;12.308;2024-03-29T02:31:32;94073.47;;;3.31;86.71
69171;BME280;56279;47.902;12.308;2024-03-29T02:33:33;94077.63;;;3.32;87.07
69171;BME280;56279;47.902;12.308;2024-03-29T02:35:35;94060.44;;;3.31;86.77
69171;BME280;56279;47.902;12.308;2024-03-29T02:37:36;94061.47;;;3.30;86.99
69171;BME280;56279;47.902;12.308;2024-03-29T02:39:38;94071.91;;;3.30;86.65
69171;BME280;56279;47.902;12.308;2024-03-29T02:41:39;94076.09;;;3.31;86.60
69171;BME280;56279;47.902;12.308;2024-03-29T02:43:40;94083.91;;;3.31;86.70
69171;BME280;56279;47.902;12.308;2024-03-29T02:45:42;94083.91;;;3.31;87.02
69171;BME280;56279;47.902;12.308;2024-03-29T02:47:44;94093.28;;;3.32;86.53
69171;BME280;56279;47.902;12.308;2024-03-29T02:49:45;94090.16;;;3.30;87.05
69171;BME280;56279;47.902;12.308;2024-03-29T02:51:47;94089.13;;;3.31;86.69
69171;BME280;56279;47.902;12.308;2024-03-29T02:53:48;94084.94;;;3.30;86.69
69171;BME280;56279;47.902;12.308;2024-03-29T02:55:51;94084.66;;;3.31;86.98
69171;BME280;56279;47.902;12.308;2024-03-29T02:57:52;94085.72;;;3.30;86.67
69171;BME280;56279;47.902;12.308;2024-03-29T02:59:53;94082.31;;;3.30;87.08
69171;BME280;56279;47.902;12.308;2024-03-29T03:01:55;94080.78;;;3.29;86.73
69171;BME280;56279;47.902;12.308;2024-03-29T03:03:56;94078.19;;;3.29;87.15
69171;BME280;56279;47.902;12.308;2024-03-29T03:05:57;94071.38;;;3.28;86.97
69171;BME280;56279;47.902;12.308;2024-03-29T03:07:58;94069.28;;;3.30;86.68
69171;BME280;56279;47.902;12.308;2024-03-29T03:10:18;94060.44;;;3.31;87.00
69171;BME280;56279;47.902;12.308;2024-03-29T03:12:38;94049.22;;;3.30;86.81
69171;BME280;56279;47.902;12.308;2024-03-29T03:14:41;94054.16;;;3.32;86.46
69171;BME280;56279;47.902;12.308;2024-03-29T03:16:42;94059.66;;;3.30;86.19
69171;BME280;56279;47.902;12.308;2024-03-29T03:18:44;94056.53;;;3.28;86.53
69171;BME280;56279;47.902;12.308;2024-03-29T03:20:53;94056.25;;;3.30;86.80
69171;BME280;56279;47.902;12.308;2024-03-29T03:22:54;94049.50;;;3.29;86.86
69171;BME280;56279;47.902;12.308;2024-03-29T03:24:57;94051.84;;;3.30;86.21
69171;BME280;56279;47.902;12.308;2024-03-29T03:26:58;94045.56;;;3.31;86.30
69171;BME280;56279;47.902;12.308;2024-03-29T03:28:59;94048.94;;;3.32;86.32
69171;BME280;56279;47.902;12.308;2024-03-29T03:31:01;94047.94;;;3.33;86.57
69171;BME280;56279;47.902;12.308;2024-03-29T03:33:02;94046.88;;;3.34;86.69
69171;BME280;56279;47.902;12.308;2024-03-29T03:35:04;94045.03;;;3.34;86.01
69171;BME280;56279;47.902;12.308;2024-03-29T03:37:05;94044.00;;;3.35;86.31
69171;BME280;56279;47.902;12.308;2024-03-29T03:39:07;94040.63;;;3.35;86.32
69171;BME280;56279;47.902;12.308;2024-03-29T03:41:09;94029.66;;;3.33;86.48
69171;BME280;56279;47.902;12.308;2024-03-29T03:43:10;94035.13;;;3.31;86.56
69171;BME280;56279;47.902;12.308;2024-03-29T03:45:12;94036.97;;;3.31;86.59
69171;BME280;56279;47.902;12.308;2024-03-29T03:47:15;94030.47;;;3.28;86.77
69171;BME280;56279;47.902;12.308;2024-03-29T03:49:16;94035.41;;;3.25;86.60
69171;BME280;56279;47.902;12.308;2024-03-29T03:51:17;94043.78;;;3.22;87.03
69171;BME280;56279;47.902;12.308;2024-03-29T03:53:19;94053.13;;;3.18;87.34
69171;BME280;56279;47.902;12.308;2024-03-29T03:55:21;94056.28;;;3.15;86.75
69171;BME280;56279;47.902;12.308;2024-03-29T03:57:23;94054.72;;;3.14;86.97
69171;BME280;56279;47.902;12.308;2024-03-29T03:59:25;94042.72;;;3.13;87.28
69171;BME280;56279;47.902;12.308;2024-03-29T04:01:26;94033.06;;;3.13;87.17
69171;BME280;56279;47.902;12.308;2024-03-29T04:03:27;94019.25;;;3.13;86.73
69171;BME280;56279;47.902;12.308;2024-03-29T04:05:29;94023.19;;;3.10;86.69
69171;BME280;56279;47.902;12.308;2024-03-29T04:07:32;94008.06;;;3.07;87.32
69171;BME280;56279;47.902;12.308;2024-03-29T04:09:34;93997.38;;;3.04;87.25
69171;BME280;56279;47.902;12.308;2024-03-29T04:11:35;93997.13;;;3.05;87.24
69171;BME280;56279;47.902;12.308;2024-03-29T04:13:37;93994.25;;;3.07;87.20
69171;BME280;56279;47.902;12.308;2024-03-29T04:15:40;93992.16;;;3.09;87.56
69171;BME280;56279;47.902;12.308;2024-03-29T04:17:41;93991.13;;;3.10;86.96
69171;BME280;56279;47.902;12.308;2024-03-29T04:19:42;94000.50;;;3.11;86.70
69171;BME280;56279;47.902;12.308;2024-03-29T04:21:44;93997.88;;;3.11;87.41
69171;BME280;56279;47.902;12.308;2024-03-29T04:23:45;94004.16;;;3.10;87.07
69171;BME280;56279;47.902;12.308;2024-03-29T04:25:59;94018.22;;;3.09;87.51
69171;BME280;56279;47.902;12.308;2024-03-29T04:28:00;94016.69;;;3.08;87.16
69171;BME280;56279;47.902;12.308;2024-03-29T04:30:01;94027.34;;;3.06;87.12
69171;BME280;56279;47.902;12.308;2024-03-29T04:32:05;94028.66;;;3.04;87.23
69171;BME280;56279;47.902;12.308;2024-03-29T04:34:06;94024.75;;;3.01;87.72
69171;BME280;56279;47.902;12.308;2024-03-29T04:36:07;93999.75;;;3.00;87.30
69171;BME280;56279;47.902;12.308;2024-03-29T04:38:09;94001.28;;;3.01;87.79
69171;BME280;56279;47.902;12.308;2024-03-29T04:40:11;94004.16;;;3.05;87.21
69171;BME280;56279;47.902;12.308;2024-03-29T04:42:12;94008.06;;;3.07;87.44
69171;BME280;56279;47.902;12.308;2024-03-29T04:44:23;93994.78;;;3.09;87.15
69171;BME280;56279;47.902;12.308;2024-03-29T04:46:25;93989.84;;;3.12;87.41
69171;BME280;56279;47.902;12.308;2024-03-29T04:48:26;93984.34;;;3.14;87.19
69171;BME280;56279;47.902;12.308;2024-03-29T04:50:27;93980.44;;;3.16;86.92
69171;BME280;56279;47.902;12.308;2024-03-29T04:52:29;93973.13;;;3.18;86.80
69171;BME280;56279;47.902;12.308;2024-03-29T04:54:30;93970.78;;;3.22;87.43
69171;BME280;56279;47.902;12.308;2024-03-29T04:56:32;93967.13;;;3.23;87.08
69171;BME280;56279;47.902;12.308;2024-03-29T04:58:33;93978.84;;;3.25;86.88
69171;BME280;56279;47.902;12.308;2024-03-29T05:00:34;93975.44;;;3.30;87.18
69171;BME280;56279;47.902;12.308;2024-03-29T05:02:36;93975.72;;;3.33;87.05
69171;BME280;56279;47.902;12.308;2024-03-29T05:04:38;93977.00;;;3.36;87.04
69171;BME280;56279;47.902;12.308;2024-03-29T05:06:40;93965.00;;;3.40;86.91
69171;BME280;56279;47.902;12.308;2024-03-29T05:08:41;93966.53;;;3.46;86.72
69171;BME280;56279;47.902;12.308;2024-03-29T05:10:44;93958.69;;;3.51;86.49
69171;BME280;56279;47.902;12.308;2024-03-29T05:12:45;93971.44;;;3.58;86.53
69171;BME280;56279;47.902;12.308;2024-03-29T05:14:46;93968.59;;;3.59;86.35
69171;BME280;56279;47.902;12.308;2024-03-29T05:16:50;93964.41;;;3.63;86.38
69171;BME280;56279;47.902;12.308;2024-03-29T05:18:53;93964.38;;;3.68;86.63
69171;BME280;56279;47.902;12.308;2024-03-29T05:20:55;93959.16;;;3.73;86.35
69171;BME280;56279;47.902;12.308;2024-03-29T05:22:58;93955.47;;;3.79;86.31
69171;BME280;56279;47.902;12.308;2024-03-29T05:24:59;93953.34;;;3.86;85.95
69171;BME280;56279;47.902;12.308;2024-03-29T05:27:01;93954.34;;;3.90;85.84
69171;BME280;56279;47.902;12.308;2024-03-29T05:29:02;93962.97;;;3.96;85.75
69171;BME280;56279;47.902;12.308;2024-03-29T05:31:14;93972.81;;;4.04;85.62
69171;BME280;56279;47.902;12.308;2024-03-29T05:33:16;93962.84;;;4.11;85.66
69171;BME280;56279;47.902;12.308;2024-03-29T05:35:17;93961.50;;;4.18;85.38
69171;BME280;56279;47.902;12.308;2024-03-29T05:37:18;93969.81;;;4.26;85.48
69171;BME280;56279;47.902;12.308;2024-03-29T05:39:20;93976.59;;;4.32;85.12
69171;BME280;56279;47.902;12.308;2024-03-29T05:41:22;93979.16;;;4.37;84.88
69171;BME280;56279;47.902;12.308;2024-03-29T05:43:24;93978.09;;;4.43;85.14
69171;BME280;56279;47.902;12.308;2024-03-29T05:45:29;93975.44;;;4.48;84.74
69171;BME280;56279;47.902;12.308;2024-03-29T05:47:31;93972.53;;;4.54;84.73
69171;BME280;56279;47.902;12.308;2024-03-29T05:49:32;93971.94;;;4.62;84.57
69171;BME280;56279;47.902;12.308;2024-03-29T05:51:34;93977.09;;;4.72;84.35
69171;BME280;56279;47.902;12.308;2024-03-29T05:53:36;93973.63;;;4.82;84.16
69171;BME280;56279;47.902;12.308;2024-03-29T05:55:39;93969.06;;;4.93;83.59
69171;BME280;56279;47.902;12.308;2024-03-29T05:57:40;93962.44;;;5.05;83.17
69171;BME280;56279;47.902;12.308;2024-03-29T05:59:42;93968.59;;;5.19;82.60
69171;BME280;56279;47.902;12.308;2024-03-29T06:01:44;93962.44;;;5.34;82.20
69171;BME280;56279;47.902;12.308;2024-03-29T06:03:45;93969.59;;;5.47;82.00
69171;BME280;56279;47.902;12.308;2024-03-29T06:05:46;93961.38;;;5.58;81.42
69171;BME280;56279;47.902;12.308;2024-03-29T06:07:48;93948.69;;;5.71;81.31
69171;BME280;56279;47.902;12.308;2024-03-29T06:09:50;93964.28;;;5.81;80.70
69171;BME280;56279;47.902;12.308;2024-03-29T06:11:52;93950.31;;;5.90;80.66
69171;BME280;56279;47.902;12.308;2024-03-29T06:13:54;93950.94;;;6.01;80.47
69171;BME280;56279;47.902;12.308;2024-03-29T06:15:55;93947.91;;;6.12;80.07
69171;BME280;56279;47.902;12.308;2024-03-29T06:18:15;93948.22;;;6.30;79.53
69171;BME280;56279;47.902;12.308;2024-03-29T06:20:17;93942.53;;;6.41;78.93
69171;BME280;56279;47.902;12.308;2024-03-29T06:22:19;93944.03;;;6.47;78.97
69171;BME280;56279;47.902;12.308;2024-03-29T06:24:20;93937.13;;;6.51;78.74
69171;BME280;56279;47.902;12.308;2024-03-29T06:26:21;93941.03;;;6.54;78.77
69171;BME280;56279;47.902;12.308;2024-03-29T06:28:23;93945.41;;;6.58;78.45
69171;BME280;56279;47.902;12.308;2024-03-29T06:30:24;93934.84;;;6.63;77.94
69171;BME280;56279;47.902;12.308;2024-03-29T06:32:25;93935.69;;;6.77;77.72
69171;BME280;56279;47.902;12.308;2024-03-29T06:34:30;93931.63;;;6.85;77.34
69171;BME280;56279;47.902;12.308;2024-03-29T06:36:32;93932.81;;;6.92;77.12
69171;BME280;56279;47.902;12.308;2024-03-29T06:38:36;93927.28;;;6.94;76.98
69171;BME280;56279;47.902;12.308;2024-03-29T06:40:37;93934.84;;;6.95;77.05
69171;BME280;56279;47.902;12.308;2024-03-29T06:42:39;93933.81;;;7.10;76.91
69171;BME280;56279;47.902;12.308;2024-03-29T06:44:40;93938.34;;;7.37;75.59
69171;BME280;56279;47.902;12.308;2024-03-29T06:46:41;93938.84;;;7.66;74.65
69171;BME280;56279;47.902;12.308;2024-03-29T06:48:43;93933.38;;;7.90;73.74
69171;BME280;56279;47.902;12.308;2024-03-29T06:50:44;93939.38;;;8.17;73.03
69171;BME280;56279;47.902;12.308;2024-03-29T06:52:46;93925.13;;;8.46;72.10
69171;BME280;56279;47.902;12.308;2024-03-29T06:54:47;93923.00;;;8.70;71.01
69171;BME280;56279;47.902;12.308;2024-03-29T06:56:48;93917.81;;;8.87;70.38
69171;BME280;56279;47.902;12.308;2024-03-29T06:58:50;93917.00;;;9.00;70.53
69171;BME280;56279;47.902;12.308;2024-03-29T07:00:52;93922.03;;;9.10;70.00
69171;BME280;56279;47.902;12.308;2024-03-29T07:02:53;93911.34;;;9.15;70.15
69171;BME280;56279;47.902;12.308;2024-03-29T07:04:55;93906.25;;;9.19;69.74
69171;BME280;56279;47.902;12.308;2024-03-29T07:06:56;93906.28;;;9.27;70.28
69171;BME280;56279;47.902;12.308;2024-03-29T07:08:58;93911.75;;;9.31;69.49
69171;BME280;56279;47.902;12.308;2024-03-29T07:11:00;93914.38;;;9.31;69.93
69171;BME280;56279;47.902;12.308;2024-03-29T07:13:02;93925.19;;;9.29;69.71
69171;BME280;56279;47.902;12.308;2024-03-29T07:15:03;93925.97;;;9.30;69.72
69171;BME280;56279;47.902;12.308;2024-03-29T07:17:05;93932.50;;;9.32;69.77
69171;BME280;56279;47.902;12.308;2024-03-29T07:19:07;93923.22;;;9.35;69.12
69171;BME280;56279;47.902;12.308;2024-03-29T07:21:08;93926.00;;;9.38;68.93
69171;BME280;56279;47.902;12.308;2024-03-29T07:23:09;93920.94;;;9.42;68.41
69171;BME280;56279;47.902;12.308;2024-03-29T07:25:13;93919.69;;;9.48;68.26
69171;BME280;56279;47.902;12.308;2024-03-29T07:27:15;93929.06;;;9.62;67.87
69171;BME280;56279;47.902;12.308;2024-03-29T07:29:18;93933.94;;;9.78;67.08
69171;BME280;56279;47.902;12.308;2024-03-29T07:31:20;93922.75;;;9.81;66.75
69171;BME280;56279;47.902;12.308;2024-03-29T07:33:22;93925.59;;;9.84;66.58
69171;BME280;56279;47.902;12.308;2024-03-29T07:35:27;93921.56;;;9.87;65.87
69171;BME280;56279;47.902;12.308;2024-03-29T07:37:28;93913.53;;;9.92;65.84
69171;BME280;56279;47.902;12.308;2024-03-29T07:39:29;93914.91;;;9.98;65.53
69171;BME280;56279;47.902;12.308;2024-03-29T07:41:31;93921.59;;;10.04;65.41
69171;BME280;56279;47.902;12.308;2024-03-29T07:43:52;93920.38;;;10.10;65.44
69171;BME280;56279;47.902;12.308;2024-03-29T07:45:55;93923.03;;;10.18;65.49
69171;BME280;56279;47.902;12.308;2024-03-29T07:47:56;93929.28;;;10.31;65.19
69171;BME280;56279;47.902;12.308;2024-03-29T07:49:57;93923.38;;;10.43;65.19
69171;BME280;56279;47.902;12.308;2024-03-29T07:51:59;93931.28;;;10.51;65.27
69171;BME280;56279;47.902;12.308;2024-03-29T07:54:03;93919.50;;;10.57;65.04
69171;BME280;56279;47.902;12.308;2024-03-29T07:56:04;93931.13;;;10.65;64.91
69171;BME280;56279;47.902;12.308;2024-03-29T07:58:06;93924.94;;;10.69;64.91
69171;BME280;56279;47.902;12.308;2024-03-29T08:00:08;93949.75;;;10.77;64.64
69171;BME280;56279;47.902;12.308;2024-03-29T08:02:11;93929.44;;;10.86;64.29
69171;BME280;56279;47.902;12.308;2024-03-29T08:04:13;93955.66;;;10.99;63.97
69171;BME280;56279;47.902;12.308;2024-03-29T08:06:14;93938.09;;;11.12;62.88
69171;BME280;56279;47.902;12.308;2024-03-29T08:08:19;93953.28;;;11.24;62.89
69171;BME280;56279;47.902;12.308;2024-03-29T08:10:20;93941.94;;;11.32;62.57
69171;BME280;56279;47.902;12.308;2024-03-29T08:12:21;93943.44;;;11.41;61.99
69171;BME280;56279;47.902;12.308;2024-03-29T08:14:23;93943.56;;;11.53;61.45
69171;BME280;56279;47.902;12.308;2024-03-29T08:16:26;93955.38;;;11.64;61.55
69171;BME280;56279;47.902;12.308;2024-03-29T08:18:28;93948.06;;;11.70;61.35
69171;BME280;56279;47.902;12.308;2024-03-29T08:20:29;93940.41;;;11.77;61.26
69171;BME280;56279;47.902;12.308;2024-03-29T08:22:31;93936.19;;;11.85;60.98
69171;BME280;56279;47.902;12.308;2024-03-29T08:24:36;93942.81;;;11.99;61.06
69171;BME280;56279;47.902;12.308;2024-03-29T08:26:37;93949.09;;;12.15;59.86
69171;BME280;56279;47.902;12.308;2024-03-29T08:28:39;93942.28;;;12.35;59.21
69171;BME280;56279;47.902;12.308;2024-03-29T08:30:40;93922.88;;;12.52;58.42
69171;BME280;56279;47.902;12.308;2024-03-29T08:32:41;93932.03;;;12.75;58.12
69171;BME280;56279;47.902;12.308;2024-03-29T08:34:43;93931.13;;;12.91;57.73
69171;BME280;56279;47.902;12.308;2024-03-29T08:36:45;93945.19;;;13.04;57.21
69171;BME280;56279;47.902;12.308;2024-03-29T08:38:46;93945.28;;;13.16;57.31
69171;BME280;56279;47.902;12.308;2024-03-29T08:40:48;93945.88;;;13.34;55.72
69171;BME280;56279;47.902;12.308;2024-03-29T08:42:50;93940.72;;;13.49;54.39
69171;BME280;56279;47.902;12.308;2024-03-29T08:44:52;93948.16;;;13.68;54.23
69171;BME280;56279;47.902;12.308;2024-03-29T08:46:54;93947.53;;;13.83;54.05
69171;BME280;56279;47.902;12.308;2024-03-29T08:48:58;93945.31;;;13.97;53.76
69171;BME280;56279;47.902;12.308;2024-03-29T08:51:02;93944.22;;;14.10;53.82
69171;BME280;56279;47.902;12.308;2024-03-29T08:53:03;93947.88;;;14.18;54.06
69171;BME280;56279;47.902;12.308;2024-03-29T08:55:06;93934.81;;;14.25;54.06
69171;BME280;56279;47.902;12.308;2024-03-29T08:57:07;93945.03;;;14.35;54.00
69171;BME280;56279;47.902;12.308;2024-03-29T08:59:09;93945.09;;;14.50;53.83
69171;BME280;56279;47.902;12.308;2024-03-29T09:01:12;93942.53;;;14.66;53.39
69171;BME280;56279;47.902;12.308;2024-03-29T09:03:15;93943.78;;;14.84;53.19
69171;BME280;56279;47.902;12.308;2024-03-29T09:05:17;93944.31;;;15.02;53.12
69171;BME280;56279;47.902;12.308;2024-03-29T09:07:18;93951.53;;;15.17;52.69
69171;BME280;56279;47.902;12.308;2024-03-29T09:09:19;93940.63;;;15.34;52.41
69171;BME280;56279;47.902;12.308;2024-03-29T09:11:21;93931.25;;;15.52;52.51
69171;BME280;56279;47.902;12.308;2024-03-29T09:13:22;93936.59;;;15.68;52.15
69171;BME280;56279;47.902;12.308;2024-03-29T09:15:24;93939.69;;;15.85;51.80
69171;BME280;56279;47.902;12.308;2024-03-29T09:17:25;93934.47;;;16.05;51.38
69171;BME280;56279;47.902;12.308;2024-03-29T09:19:26;93938.66;;;16.21;51.03
69171;BME280;56279;47.902;12.308;2024-03-29T09:21:28;93936.81;;;16.41;50.77
69171;BME280;56279;47.902;12.308;2024-03-29T09:23:29;93942.56;;;16.58;49.94
69171;BME280;56279;47.902;12.308;2024-03-29T09:25:30;93933.00;;;16.73;49.49
69171;BME280;56279;47.902;12.308;2024-03-29T09:27:33;93944.00;;;16.91;49.44
69171;BME280;56279;47.902;12.308;2024-03-29T09:29:36;93945.09;;;17.05;49.49
69171;BME280;56279;47.902;12.308;2024-03-29T09:31:38;93945.38;;;17.19;48.87
69171;BME280;56279;47.902;12.308;2024-03-29T09:33:40;93943.31;;;17.32;49.42
69171;BME280;56279;47.902;12.308;2024-03-29T09:35:41;93940.44;;;17.41;48.44
69171;BME280;56279;47.902;12.308;2024-03-29T09:37:42;93945.41;;;17.42;47.20
69171;BME280;56279;47.902;12.308;2024-03-29T09:39:44;93931.16;;;17.35;46.39
69171;BME280;56279;47.902;12.308;2024-03-29T09:41:45;93929.22;;;17.32;46.51
69171;BME280;56279;47.902;12.308;2024-03-29T09:43:47;93935.38;;;17.36;46.42
69171;BME280;56279;47.902;12.308;2024-03-29T09:45:49;93911.78;;;17.38;46.35
69171;BME280;56279;47.902;12.308;2024-03-29T09:47:51;93946.47;;;17.38;46.05
69171;BME280;56279;47.902;12.308;2024-03-29T09:49:54;93925.97;;;17.42;46.79
69171;BME280;56279;47.902;12.308;2024-03-29T09:51:59;93928.50;;;17.54;45.99
69171;BME280;56279;47.902;12.308;2024-03-29T09:54:00;93923.06;;;17.69;45.54
69171;BME280;56279;47.902;12.308;2024-03-29T09:56:07;93919.81;;;17.79;46.22
69171;BME280;56279;47.902;12.308;2024-03-29T09:58:08;93910.84;;;17.91;45.72
69171;BME280;56279;47.902;12.308;2024-03-29T10:00:10;93917.00;;;17.95;44.41
69171;BME280;56279;47.902;12.308;2024-03-29T10:02:15;93914.44;;;18.02;44.76
69171;BME280;56279;47.902;12.308;2024-03-29T10:04:20;93920.69;;;18.10;44.99
69171;BME280;56279;47.902;12.308;2024-03-29T10:06:24;93930.38;;;18.18;43.82
69171;BME280;56279;47.902;12.308;2024-03-29T10:08:26;93927.44;;;18.26;43.52
69171;BME280;56279;47.902;12.308;2024-03-29T10:10:28;93932.81;;;18.30;44.66
69171;BME280;56279;47.902;12.308;2024-03-29T10:12:30;93932.81;;;18.30;43.73
69171;BME280;56279;47.902;12.308;2024-03-29T10:14:31;93926.63;;;18.22;43.76
69171;BME280;56279;47.902;12.308;2024-03-29T10:16:33;93918.38;;;18.08;43.90
69171;BME280;56279;47.902;12.308;2024-03-29T10:18:34;93926.97;;;17.98;44.04
69171;BME280;56279;47.902;12.308;2024-03-29T10:20:36;93923.00;;;17.88;45.12
69171;BME280;56279;47.902;12.308;2024-03-29T10:22:41;93913.34;;;17.80;45.35
69171;BME280;56279;47.902;12.308;2024-03-29T10:24:42;93917.50;;;17.78;45.10
69171;BME280;56279;47.902;12.308;2024-03-29T10:26:46;93917.09;;;17.76;45.24
69171;BME280;56279;47.902;12.308;2024-03-29T10:28:47;93924.31;;;17.75;45.66
69171;BME280;56279;47.902;12.308;2024-03-29T10:30:50;93914.47;;;17.79;45.69
69171;BME280;56279;47.902;12.308;2024-03-29T10:32:51;93931.31;;;17.83;45.14
69171;BME280;56279;47.902;12.308;2024-03-29T10:34:53;93933.75;;;17.92;45.25
69171;BME280;56279;47.902;12.308;2024-03-29T10:36:54;93922.41;;;17.99;45.20
69171;BME280;56279;47.902;12.308;2024-03-29T10:38:55;93933.09;;;17.99;44.86
69171;BME280;56279;47.902;12.308;2024-03-29T10:40:57;93940.41;;;18.02;44.52
69171;BME280;56279;47.902;12.308;2024-03-29T10:42:59;93933.63;;;18.08;44.62
69171;BME280;56279;47.902;12.308;2024-03-29T10:45:06;93935.63;;;18.14;44.39